Kezdőlap
METAR-TAF:

METAR-TAF

Repülőterek :

Kasane, Botswana

földrajzi szélesség: 17-49S, földrajzi hosszúság: 025-09E, magasság: 968 m

METAR: hiányzik

Idő: 13:06 (11:06 UTC)

Előrejelzés

A jelentés 5 órával és 6 perccel ezelõtt készült, 06:00 UTC
Az előrejelzés 23-én 09 óra UTC és 23-én 18 óra UTC között érvényes
Kelet-délkeleti szél 5 kt
Látótávolság 10 km, vagy több
felhőtlen 1500 m magasságban, és nincs gomolyfelhõ

TAF: FBKE 230600Z 2309/2318 11005KT CAVOK

Meteorológiai megfigyelések és előrejelzések több, mint 4000 repülőtéren (METAR és TAF jelentéseket).

A térképen piros és sárga pontok jelzik az elérhető meteorológiai állomásokat.

Mozgassa az egeret a pont fölött, hogy megjelenjen az állomás neve.

Azután kattintson az időjárási megfigyelések és előrejelzések megtekintéséhez.

A térkép megváltoztatása: kattintson a fekete keresztel jelölt zöld gombra ráközelítéshez, a vonallal jelölt zöld gombra távolításhoz, vagy a zöld nyilakra a szomszédos térképek eléréséhez.


METAR-TAF: